Time;durP1;ratioP1;P1;durP2;ratioP2;P2;SDS_P1;SDS_P2;PMS_P1;PMS_P2;Temp;Humidity;BMP_temperature;BMP_pressure;BME280_temperature;BME280_humidity;BME280_pressure;Samples;Min_cycle;Max_cycle;Signal;HPM_P1;HPM_P2
2022/01/05 00:01:00;;;;;;;7.40;1.60;;;2.40;99.90;;;;;;5092929;28;20038;-62
2022/01/05 00:03:26;;;;;;;5.90;2.10;;;2.30;99.90;;;;;;5099457;28;20107;-61
2022/01/05 00:05:52;;;;;;;2.55;1.13;;;2.30;99.90;;;;;;5093860;28;20476;-61
2022/01/05 00:08:20;;;;;;;11.57;1.77;;;2.30;99.90;;;;;;5087517;28;20121;-60
2022/01/05 00:10:46;;;;;;;7.55;1.90;;;2.20;99.90;;;;;;5090230;28;20036;-60
2022/01/05 00:13:11;;;;;;;6.22;1.40;;;2.20;99.90;;;;;;5084573;28;20086;-62
2022/01/05 00:15:37;;;;;;;10.07;1.10;;;2.30;99.90;;;;;;5094320;28;20028;-60
2022/01/05 00:18:02;;;;;;;6.40;1.40;;;2.30;99.90;;;;;;5083163;28;20535;-60
2022/01/05 00:20:30;;;;;;;5.80;0.82;;;2.30;99.90;;;;;;5086853;28;20552;-62
2022/01/05 00:22:56;;;;;;;7.38;2.10;;;2.10;99.90;;;;;;5085246;28;20032;-60
2022/01/05 00:25:21;;;;;;;5.40;0.98;;;2.10;99.90;;;;;;5088172;28;20112;-59
2022/01/05 00:27:47;;;;;;;7.95;1.08;;;2.10;99.90;;;;;;5085461;28;20032;-62
2022/01/05 00:30:12;;;;;;;6.72;1.05;;;2.20;99.90;;;;;;5071647;28;20033;-62
2022/01/05 00:32:38;;;;;;;7.65;1.48;;;2.20;99.90;;;;;;5084123;28;20068;-60
2022/01/05 00:35:04;;;;;;;6.57;1.33;;;2.30;99.90;;;;;;5083252;28;20036;-61
2022/01/05 00:37:30;;;;;;;12.30;1.42;;;2.40;99.90;;;;;;5084465;28;20503;-62
2022/01/05 00:39:55;;;;;;;8.98;1.35;;;2.30;99.90;;;;;;5085246;28;20040;-61
2022/01/05 00:42:21;;;;;;;7.05;0.88;;;2.30;99.90;;;;;;5086416;28;20040;-61
2022/01/05 00:44:46;;;;;;;5.35;0.95;;;2.20;99.90;;;;;;5088050;28;20412;-62
2022/01/05 00:47:12;;;;;;;2.63;0.60;;;2.20;99.90;;;;;;5083211;28;20048;-61
2022/01/05 00:49:37;;;;;;;3.83;1.48;;;2.20;99.90;;;;;;5084511;28;20042;-61
2022/01/05 00:52:03;;;;;;;6.45;0.95;;;2.20;99.90;;;;;;5082825;28;20045;-61
2022/01/05 00:54:29;;;;;;;3.70;0.93;;;2.10;99.90;;;;;;5087820;28;20036;-62
2022/01/05 00:56:54;;;;;;;2.47;0.55;;;2.00;99.90;;;;;;5084730;28;20036;-62
2022/01/05 00:59:20;;;;;;;1.63;0.63;;;1.90;99.90;;;;;;5079697;28;20139;-60
2022/01/05 01:01:45;;;;;;;1.65;0.70;;;1.90;99.90;;;;;;5084651;28;20504;-61
2022/01/05 01:04:11;;;;;;;3.92;0.80;;;2.00;99.90;;;;;;5082443;28;20042;-59
2022/01/05 01:06:36;;;;;;;2.38;0.60;;;1.90;99.90;;;;;;5084993;28;20033;-63
2022/01/05 01:09:02;;;;;;;5.72;0.82;;;1.80;99.90;;;;;;5087645;28;20112;-62
2022/01/05 01:11:28;;;;;;;3.63;0.50;;;1.90;99.90;;;;;;5085662;28;20036;-62
2022/01/05 01:13:53;;;;;;;2.00;0.43;;;1.90;99.90;;;;;;5082042;28;20662;-61
2022/01/05 01:16:19;;;;;;;2.65;0.80;;;2.00;99.90;;;;;;5083292;28;20608;-62
2022/01/05 01:18:45;;;;;;;0.47;0.40;;;1.90;99.90;;;;;;5085771;28;20043;-61
2022/01/05 01:21:11;;;;;;;1.70;0.40;;;2.00;99.90;;;;;;5085659;28;20491;-62
2022/01/05 01:23:37;;;;;;;0.85;0.50;;;2.00;99.90;;;;;;5082818;28;20118;-60
2022/01/05 01:26:03;;;;;;;2.13;0.80;;;1.90;99.90;;;;;;5086100;28;20040;-62
2022/01/05 01:28:29;;;;;;;2.05;0.38;;;1.90;99.90;;;;;;5077032;28;20036;-62
2022/01/05 01:30:55;;;;;;;1.92;0.60;;;1.90;99.90;;;;;;5080134;28;20559;-60
2022/01/05 01:33:20;;;;;;;2.67;0.85;;;1.80;99.90;;;;;;5084559;28;20150;-61
2022/01/05 01:35:46;;;;;;;4.60;0.60;;;1.80;99.90;;;;;;5088996;28;20102;-61
2022/01/05 01:38:12;;;;;;;2.17;0.60;;;1.80;99.90;;;;;;5081734;28;20041;-60
2022/01/05 01:40:37;;;;;;;2.95;0.50;;;1.80;99.90;;;;;;5086644;28;20438;-61
2022/01/05 01:43:04;;;;;;;3.10;1.50;;;1.80;99.90;;;;;;5074308;28;20025;-59
2022/01/05 01:45:29;;;;;;;2.72;0.88;;;1.80;99.90;;;;;;5077570;28;20123;-60
2022/01/05 01:47:55;;;;;;;1.35;0.60;;;1.80;99.90;;;;;;5083713;28;20165;-60
2022/01/05 01:50:20;;;;;;;0.60;0.40;;;1.90;99.90;;;;;;5086005;28;20389;-60
2022/01/05 01:52:46;;;;;;;1.38;0.50;;;1.80;99.90;;;;;;5079483;28;20436;-60
2022/01/05 01:55:12;;;;;;;1.45;0.40;;;1.70;99.90;;;;;;5085371;28;20575;-60
2022/01/05 01:57:41;;;;;;;0.65;0.35;;;1.60;99.90;;;;;;5077448;28;20039;-60
2022/01/05 02:00:07;;;;;;;1.27;0.50;;;1.70;99.90;;;;;;5078585;28;20028;-60
2022/01/05 02:02:33;;;;;;;1.60;0.40;;;1.80;99.90;;;;;;5082577;28;20500;-62
2022/01/05 02:04:59;;;;;;;2.65;0.40;;;1.60;99.90;;;;;;5074425;28;20120;-61
2022/01/05 02:07:24;;;;;;;2.53;0.80;;;1.50;99.90;;;;;;5081195;28;20051;-61
2022/01/05 02:09:50;;;;;;;1.60;0.60;;;1.50;99.90;;;;;;5086373;28;20047;-63
2022/01/05 02:12:16;;;;;;;2.65;0.57;;;1.50;99.90;;;;;;5077396;28;20032;-62
2022/01/05 02:14:41;;;;;;;2.75;0.60;;;1.50;99.90;;;;;;5080106;28;20035;-62
2022/01/05 02:17:20;;;;;;;3.83;1.27;;;1.50;99.90;;;;;;5081067;28;20040;-61
2022/01/05 02:19:46;;;;;;;2.38;0.55;;;1.50;99.90;;;;;;5078223;28;20044;-62
2022/01/05 02:22:11;;;;;;;2.75;1.23;;;1.50;99.90;;;;;;5081567;28;20038;-61
2022/01/05 02:24:37;;;;;;;1.05;0.30;;;1.50;99.90;;;;;;5087753;28;20035;-61
2022/01/05 02:27:03;;;;;;;1.27;0.40;;;1.50;99.90;;;;;;5083791;28;20408;-62
2022/01/05 02:29:29;;;;;;;1.30;0.38;;;1.50;99.90;;;;;;5072756;28;20045;-62
2022/01/05 02:31:57;;;;;;;5.30;0.63;;;1.50;99.90;;;;;;5082859;28;20036;-62
2022/01/05 02:34:22;;;;;;;5.68;0.68;;;1.30;99.90;;;;;;5086480;28;20039;-62
2022/01/05 02:36:48;;;;;;;2.13;0.70;;;1.40;99.90;;;;;;5082961;28;20490;-62
2022/01/05 02:39:13;;;;;;;3.70;0.93;;;1.40;99.90;;;;;;5082334;28;20077;-62
2022/01/05 02:41:39;;;;;;;1.70;0.55;;;1.30;99.90;;;;;;5072310;28;20582;-61
2022/01/05 02:44:05;;;;;;;4.20;0.85;;;1.30;99.90;;;;;;5072943;28;20060;-61
2022/01/05 02:46:32;;;;;;;4.05;0.88;;;1.10;99.90;;;;;;5080033;28;20132;-61
2022/01/05 02:48:58;;;;;;;9.18;1.08;;;1.20;99.90;;;;;;5082418;28;20123;-61
2022/01/05 02:51:24;;;;;;;7.82;1.90;;;1.20;99.90;;;;;;5083681;28;20056;-61
2022/01/05 02:53:50;;;;;;;11.48;2.45;;;1.10;99.90;;;;;;5077882;28;20036;-61
2022/01/05 02:56:15;;;;;;;4.40;1.08;;;1.00;99.90;;;;;;5086012;28;20596;-62
2022/01/05 02:58:41;;;;;;;5.45;1.15;;;1.10;99.90;;;;;;5078105;28;20036;-61
2022/01/05 03:01:07;;;;;;;7.78;1.20;;;1.10;99.90;;;;;;5077401;28;20089;-61
2022/01/05 03:03:33;;;;;;;11.82;1.58;;;1.20;99.90;;;;;;5079572;28;20039;-62
2022/01/05 03:05:58;;;;;;;8.77;1.52;;;1.20;99.90;;;;;;5087769;28;20032;-62
2022/01/05 03:08:24;;;;;;;10.43;1.50;;;1.20;99.90;;;;;;5063274;28;20040;-62
2022/01/05 03:10:49;;;;;;;5.38;1.80;;;1.20;99.90;;;;;;5094438;28;20556;-61
2022/01/05 03:13:15;;;;;;;10.57;1.63;;;1.30;99.90;;;;;;5080590;28;20028;-60
2022/01/05 03:15:41;;;;;;;10.93;2.17;;;1.40;99.90;;;;;;5095393;28;20035;-60
2022/01/05 03:18:07;;;;;;;8.73;1.98;;;1.30;99.90;;;;;;5079649;28;20044;-62
2022/01/05 03:20:34;;;;;;;16.00;2.28;;;1.30;99.90;;;;;;5091720;28;20994;-62
2022/01/05 03:23:01;;;;;;;18.58;3.05;;;1.30;99.90;;;;;;5079181;28;20044;-62
2022/01/05 03:25:27;;;;;;;11.68;2.70;;;1.30;99.90;;;;;;5095337;28;20046;-61
2022/01/05 03:27:54;;;;;;;9.45;2.40;;;1.30;99.90;;;;;;5079388;28;20040;-62
2022/01/05 03:30:23;;;;;;;14.65;2.75;;;1.30;99.90;;;;;;5092895;28;20043;-62
2022/01/05 03:35:24;;;;;;;12.02;2.75;;;1.30;99.90;;;;;;5095003;28;20120;-62
2022/01/05 03:37:50;;;;;;;15.35;2.90;;;1.30;99.90;;;;;;5065280;28;20491;-59
2022/01/05 03:40:15;;;;;;;19.10;3.42;;;1.30;99.90;;;;;;5092468;28;20092;-60
2022/01/05 03:42:41;;;;;;;10.98;2.65;;;1.20;99.90;;;;;;5071331;28;20129;-61
2022/01/05 03:45:07;;;;;;;11.10;2.80;;;1.30;99.90;;;;;;5076351;28;20567;-61
2022/01/05 03:47:33;;;;;;;11.90;2.78;;;1.20;99.90;;;;;;5080456;28;20048;-62
2022/01/05 03:49:58;;;;;;;9.45;2.90;;;1.30;99.90;;;;;;5092053;28;20502;-62
2022/01/05 03:52:24;;;;;;;11.35;2.90;;;1.30;99.90;;;;;;5082994;28;20094;-61
2022/01/05 03:54:49;;;;;;;14.80;2.90;;;1.20;99.90;;;;;;5095324;28;20031;-62
2022/01/05 03:57:15;;;;;;;16.02;3.42;;;1.10;99.90;;;;;;5087425;28;20036;-61
2022/01/05 03:59:41;;;;;;;19.30;4.28;;;1.10;99.90;;;;;;5083693;28;20089;-65
2022/01/05 04:02:06;;;;;;;13.32;3.03;;;1.10;99.90;;;;;;5089773;28;20048;-62
2022/01/05 04:04:33;;;;;;;12.63;3.10;;;1.00;99.90;;;;;;5095423;28;20035;-60
2022/01/05 04:06:59;;;;;;;17.85;3.70;;;1.10;99.90;;;;;;5085207;28;20032;-62
2022/01/05 04:09:25;;;;;;;16.02;3.67;;;1.10;99.90;;;;;;5085997;28;20044;-61
2022/01/05 04:11:50;;;;;;;15.95;4.15;;;1.10;99.90;;;;;;5084352;28;20133;-62
2022/01/05 04:14:16;;;;;;;10.55;3.17;;;1.00;99.90;;;;;;5085421;28;20036;-62
2022/01/05 04:16:41;;;;;;;15.75;3.63;;;1.00;99.90;;;;;;5086737;28;20055;-62
2022/01/05 04:19:07;;;;;;;10.18;3.90;;;1.00;99.90;;;;;;5084243;28;20039;-61
2022/01/05 04:21:32;;;;;;;16.23;4.60;;;1.10;99.90;;;;;;5081730;28;20083;-62
2022/01/05 04:23:58;;;;;;;18.45;3.78;;;1.00;99.90;;;;;;5085198;28;20071;-62
2022/01/05 04:26:23;;;;;;;11.27;4.40;;;1.00;99.90;;;;;;5088075;28;20074;-62
2022/01/05 04:28:49;;;;;;;10.25;3.88;;;0.90;99.90;;;;;;5088393;28;20089;-62
2022/01/05 04:31:15;;;;;;;12.68;4.07;;;0.90;99.90;;;;;;5084030;28;20105;-62
2022/01/05 04:33:41;;;;;;;14.93;4.85;;;0.80;99.90;;;;;;5072257;28;20082;-63
2022/01/05 04:36:07;;;;;;;15.73;5.00;;;0.80;99.90;;;;;;5074919;28;20050;-62
2022/01/05 04:38:33;;;;;;;18.33;4.78;;;0.80;99.90;;;;;;5074925;28;20056;-62
2022/01/05 04:40:59;;;;;;;17.05;5.93;;;0.80;99.90;;;;;;5082234;28;20040;-60
2022/01/05 04:43:24;;;;;;;22.67;5.10;;;0.80;99.90;;;;;;5083955;28;20032;-61
2022/01/05 04:45:50;;;;;;;16.63;5.97;;;0.80;99.90;;;;;;5088462;28;20666;-62
2022/01/05 04:48:15;;;;;;;25.10;6.13;;;0.70;99.90;;;;;;5076514;28;20101;-62
2022/01/05 04:50:41;;;;;;;15.00;5.68;;;0.70;99.90;;;;;;5077758;28;20557;-63
2022/01/05 04:53:07;;;;;;;21.17;6.30;;;0.80;99.90;;;;;;5081712;28;20043;-61
2022/01/05 04:55:34;;;;;;;14.52;5.95;;;0.80;99.90;;;;;;5087824;28;20036;-62
2022/01/05 04:57:59;;;;;;;20.65;4.85;;;0.70;99.90;;;;;;5082178;28;20093;-62
2022/01/05 05:00:25;;;;;;;13.23;4.47;;;0.70;99.90;;;;;;5076999;28;20036;-62
2022/01/05 05:02:50;;;;;;;20.00;5.97;;;0.60;99.90;;;;;;5075694;28;20500;-61
2022/01/05 05:05:16;;;;;;;14.95;5.30;;;0.60;99.90;;;;;;5083246;28;20082;-62
2022/01/05 05:07:41;;;;;;;16.90;5.65;;;0.60;99.90;;;;;;5081272;28;20051;-61
2022/01/05 05:10:07;;;;;;;19.50;6.00;;;0.60;99.90;;;;;;5080925;28;20432;-62
2022/01/05 05:12:33;;;;;;;18.42;5.50;;;0.60;99.90;;;;;;5082973;28;20041;-62
2022/01/05 05:14:59;;;;;;;17.33;5.43;;;0.60;99.90;;;;;;5089327;28;20032;-62
2022/01/05 05:17:24;;;;;;;22.75;5.90;;;0.60;99.90;;;;;;5082095;28;20052;-61
2022/01/05 05:19:50;;;;;;;18.73;5.60;;;0.50;99.90;;;;;;5086578;28;20028;-61
2022/01/05 05:22:15;;;;;;;20.15;5.50;;;0.60;99.90;;;;;;5079824;28;20047;-61
2022/01/05 05:24:41;;;;;;;26.02;6.07;;;0.60;99.90;;;;;;5086530;28;20035;-62
2022/01/05 05:27:07;;;;;;;19.90;6.28;;;0.60;99.90;;;;;;5082727;28;20041;-61
2022/01/05 05:29:32;;;;;;;20.35;5.40;;;0.60;99.90;;;;;;5085281;28;20051;-62
2022/01/05 05:31:58;;;;;;;23.25;5.93;;;0.70;99.90;;;;;;5081053;28;20059;-62
2022/01/05 05:34:25;;;;;;;27.15;5.57;;;0.70;99.90;;;;;;5080637;28;20036;-62
2022/01/05 05:36:50;;;;;;;15.07;6.03;;;0.60;99.90;;;;;;5082403;28;20044;-63
2022/01/05 05:39:16;;;;;;;19.23;6.13;;;0.60;99.90;;;;;;5077021;28;20032;-63
2022/01/05 05:41:42;;;;;;;19.90;5.32;;;0.60;99.90;;;;;;5083479;28;20127;-63
2022/01/05 05:44:07;;;;;;;20.05;6.50;;;0.50;99.90;;;;;;5073323;28;20064;-62
2022/01/05 05:46:34;;;;;;;14.20;5.90;;;0.50;99.90;;;;;;5081717;28;20040;-62
2022/01/05 05:49:00;;;;;;;13.63;4.93;;;0.40;99.90;;;;;;5081377;28;20040;-62
2022/01/05 05:51:26;;;;;;;17.13;4.75;;;0.40;99.90;;;;;;5083871;28;20492;-62
2022/01/05 05:53:51;;;;;;;14.77;4.80;;;0.30;99.90;;;;;;5079454;28;20119;-62
2022/01/05 05:56:17;;;;;;;20.40;5.57;;;0.20;99.90;;;;;;5086484;28;20750;-62
2022/01/05 05:58:43;;;;;;;15.25;5.00;;;0.20;99.90;;;;;;5084333;28;20391;-63
2022/01/05 06:01:08;;;;;;;15.48;4.50;;;0.20;99.90;;;;;;5084976;28;20506;-62
2022/01/05 06:03:34;;;;;;;13.52;3.88;;;0.20;99.90;;;;;;5079596;28;20040;-62
2022/01/05 06:06:00;;;;;;;18.45;4.63;;;0.10;99.90;;;;;;5090027;28;20507;-62
2022/01/05 06:08:25;;;;;;;11.73;4.43;;;0.10;99.90;;;;;;5082460;28;20042;-62
2022/01/05 06:10:51;;;;;;;14.75;4.93;;;0.10;99.90;;;;;;5095627;28;20487;-62
2022/01/05 06:13:17;;;;;;;13.82;4.47;;;0.10;99.90;;;;;;5078529;28;20024;-60
2022/01/05 06:15:42;;;;;;;13.55;4.18;;;0.00;99.90;;;;;;5076916;28;20072;-62
2022/01/05 06:18:08;;;;;;;21.75;4.45;;;0.10;99.90;;;;;;5082218;28;20470;-62
2022/01/05 06:20:33;;;;;;;20.48;5.57;;;0.10;99.90;;;;;;5089732;28;20036;-65
2022/01/05 06:22:59;;;;;;;19.27;4.43;;;0.10;99.90;;;;;;5075088;28;20036;-60
2022/01/05 06:25:24;;;;;;;14.73;4.35;;;0.00;99.90;;;;;;5086398;28;20086;-63
2022/01/05 06:27:50;;;;;;;15.00;4.20;;;0.10;99.90;;;;;;5092141;28;20547;-62
2022/01/05 06:30:16;;;;;;;12.82;4.80;;;0.10;99.90;;;;;;5095364;28;20116;-62
2022/01/05 06:32:44;;;;;;;22.88;4.72;;;0.10;99.90;;;;;;5082593;28;20072;-63
2022/01/05 06:35:09;;;;;;;19.02;5.18;;;0.20;99.90;;;;;;5095637;28;20039;-63
2022/01/05 06:37:35;;;;;;;9.30;3.35;;;0.20;99.90;;;;;;5081289;28;20109;-62
2022/01/05 06:40:01;;;;;;;13.48;3.75;;;0.10;99.90;;;;;;5080337;28;20040;-62
2022/01/05 06:42:26;;;;;;;13.02;3.35;;;0.10;99.90;;;;;;5071842;28;20509;-63
2022/01/05 06:44:52;;;;;;;11.85;3.85;;;0.00;99.90;;;;;;5077506;28;20081;-61
2022/01/05 06:47:17;;;;;;;14.40;3.75;;;0.00;99.90;;;;;;5081956;28;20071;-62
2022/01/05 06:49:43;;;;;;;19.48;3.55;;;-0.10;99.90;;;;;;5083486;28;20054;-61
2022/01/05 06:52:11;;;;;;;11.70;3.55;;;-0.10;99.90;;;;;;5088303;28;20032;-62
2022/01/05 06:54:37;;;;;;;12.32;3.95;;;-0.10;99.90;;;;;;5076654;28;20136;-62
2022/01/05 06:57:03;;;;;;;19.20;3.70;;;-0.10;99.90;;;;;;5078606;28;20131;-62
2022/01/05 06:59:29;;;;;;;18.00;3.75;;;-0.10;99.90;;;;;;5072394;28;20198;-62
2022/01/05 07:01:55;;;;;;;19.05;4.28;;;-0.20;99.90;;;;;;5088520;28;20036;-61
2022/01/05 07:04:20;;;;;;;19.23;3.53;;;-0.20;99.90;;;;;;5086540;28;20038;-63
2022/01/05 07:06:46;;;;;;;13.63;3.17;;;-0.20;99.90;;;;;;5089003;28;20033;-62
2022/01/05 07:09:11;;;;;;;19.00;3.30;;;-0.20;99.90;;;;;;5068249;28;20043;-63
2022/01/05 07:11:37;;;;;;;19.92;5.40;;;-0.20;99.90;;;;;;5091273;28;20043;-62
2022/01/05 07:14:05;;;;;;;21.60;4.00;;;-0.30;99.90;;;;;;5083388;28;20120;-62
2022/01/05 07:16:30;;;;;;;12.60;2.63;;;-0.30;99.90;;;;;;5089763;28;20155;-63
2022/01/05 07:18:56;;;;;;;14.30;3.22;;;-0.30;99.90;;;;;;5084459;28;20131;-62
2022/01/05 07:21:22;;;;;;;12.35;3.17;;;-0.30;99.90;;;;;;5093058;28;20032;-62
2022/01/05 07:23:47;;;;;;;20.10;3.65;;;-0.30;99.90;;;;;;5081139;28;20043;-62
2022/01/05 07:26:13;;;;;;;11.52;2.80;;;-0.20;99.90;;;;;;5093682;28;20440;-62
2022/01/05 07:28:38;;;;;;;17.50;3.60;;;-0.30;99.90;;;;;;5085682;28;20039;-62
2022/01/05 07:31:04;;;;;;;17.48;4.05;;;-0.30;99.90;;;;;;5099865;28;20044;-63
2022/01/05 07:33:30;;;;;;;22.45;3.95;;;-0.30;99.90;;;;;;5086665;28;20044;-63
2022/01/05 07:35:55;;;;;;;22.20;3.60;;;-0.30;99.90;;;;;;5099605;28;20477;-62
2022/01/05 07:38:21;;;;;;;23.52;3.75;;;-0.30;99.90;;;;;;5087206;28;20418;-62
2022/01/05 07:40:46;;;;;;;18.35;3.30;;;-0.20;99.90;;;;;;5094828;28;20075;-62
2022/01/05 07:43:12;;;;;;;16.75;4.28;;;-0.30;99.90;;;;;;5078097;28;20128;-62
2022/01/05 07:45:37;;;;;;;16.92;3.75;;;-0.30;99.90;;;;;;5099932;28;20036;-62
2022/01/05 07:48:04;;;;;;;19.00;4.70;;;-0.30;99.90;;;;;;5085795;28;20036;-63
2022/01/05 07:50:30;;;;;;;23.02;3.75;;;-0.20;99.90;;;;;;5099875;28;20047;-62
2022/01/05 07:52:55;;;;;;;17.00;3.63;;;-0.20;99.90;;;;;;5084246;28;20025;-62
2022/01/05 07:55:21;;;;;;;13.02;4.25;;;-0.30;99.90;;;;;;5100245;28;20564;-62
2022/01/05 07:57:46;;;;;;;14.18;3.03;;;-0.20;99.90;;;;;;5085376;28;20074;-62
2022/01/05 08:00:13;;;;;;;21.67;3.85;;;-0.20;99.90;;;;;;5076926;28;20112;-62
2022/01/05 08:02:38;;;;;;;17.35;4.05;;;-0.20;99.90;;;;;;5084988;28;20059;-63
2022/01/05 08:05:04;;;;;;;11.70;2.97;;;-0.20;99.90;;;;;;5098892;28;20035;-62
2022/01/05 08:07:30;;;;;;;18.15;4.07;;;-0.20;99.90;;;;;;5086517;28;20043;-62
2022/01/05 08:09:56;;;;;;;20.38;3.67;;;0.00;99.90;;;;;;5086306;28;20032;-62
2022/01/05 08:12:21;;;;;;;20.30;3.42;;;0.10;99.90;;;;;;5081443;28;20106;-62
2022/01/05 08:14:48;;;;;;;17.70;3.72;;;0.20;99.90;;;;;;5074376;28;20036;-64
2022/01/05 08:17:14;;;;;;;10.25;3.45;;;0.20;99.90;;;;;;5082417;28;20525;-64
2022/01/05 08:19:41;;;;;;;10.55;3.42;;;0.20;99.90;;;;;;5073403;28;20040;-64
2022/01/05 08:22:07;;;;;;;16.70;4.63;;;0.20;99.90;;;;;;5082815;28;20047;-63
2022/01/05 08:24:32;;;;;;;24.73;4.55;;;0.30;99.90;;;;;;5072653;28;20408;-62
2022/01/05 08:26:58;;;;;;;17.17;4.75;;;0.30;99.90;;;;;;5085096;28;20407;-62
2022/01/05 08:29:24;;;;;;;19.42;4.47;;;0.40;99.90;;;;;;5072542;28;20048;-61
2022/01/05 08:31:49;;;;;;;22.95;4.80;;;0.40;99.90;;;;;;5095764;28;20050;-63
2022/01/05 08:34:15;;;;;;;25.08;4.95;;;0.40;99.90;;;;;;5088092;28;20075;-64
2022/01/05 08:36:41;;;;;;;24.25;4.40;;;0.50;99.90;;;;;;5097309;28;20040;-62
2022/01/05 08:39:07;;;;;;;17.73;4.00;;;0.60;99.90;;;;;;5083026;28;20368;-63
2022/01/05 08:41:32;;;;;;;17.45;3.35;;;0.70;99.90;;;;;;5097444;28;20036;-64
2022/01/05 08:43:58;;;;;;;21.25;4.82;;;0.70;99.90;;;;;;5087148;28;20123;-63
2022/01/05 08:46:24;;;;;;;20.50;4.40;;;0.70;99.90;;;;;;5090646;28;20097;-64
2022/01/05 08:48:50;;;;;;;18.73;4.60;;;0.70;99.90;;;;;;5077436;28;20032;-63
2022/01/05 08:51:15;;;;;;;19.70;4.95;;;0.70;99.90;;;;;;5094931;28;20047;-63
2022/01/05 08:53:41;;;;;;;23.80;5.18;;;0.60;99.90;;;;;;5084833;28;20038;-63
2022/01/05 08:56:07;;;;;;;17.52;4.28;;;0.60;99.90;;;;;;5098065;28;20032;-60
2022/01/05 08:58:32;;;;;;;20.52;4.78;;;0.60;99.90;;;;;;5085357;28;20047;-58
2022/01/05 09:00:58;;;;;;;15.45;5.00;;;0.60;99.90;;;;;;5091531;28;20039;-64
2022/01/05 09:03:24;;;;;;;17.77;4.65;;;0.50;99.90;;;;;;5084801;28;20048;-63
2022/01/05 09:05:49;;;;;;;22.23;5.22;;;0.60;99.90;;;;;;5097163;28;20040;-62
2022/01/05 09:08:15;;;;;;;16.48;4.70;;;0.60;99.90;;;;;;5084197;28;20032;-63
2022/01/05 09:10:42;;;;;;;15.98;4.90;;;0.70;99.90;;;;;;5080062;28;20488;-62
2022/01/05 09:13:12;;;;;;;18.50;5.15;;;0.60;99.90;;;;;;5082224;28;20032;-62
2022/01/05 09:15:40;;;;;;;15.75;5.18;;;0.70;99.90;;;;;;5099205;28;20526;-62
2022/01/05 09:18:06;;;;;;;22.00;5.18;;;0.70;99.90;;;;;;5080477;28;20044;-62
2022/01/05 09:20:32;;;;;;;14.85;5.40;;;0.70;99.90;;;;;;5098466;28;20040;-63
2022/01/05 09:22:58;;;;;;;22.58;7.38;;;0.70;99.90;;;;;;5084595;28;20426;-60
2022/01/05 09:25:24;;;;;;;15.65;5.57;;;0.80;99.90;;;;;;5097496;28;20039;-64
2022/01/05 09:27:51;;;;;;;23.95;5.63;;;0.90;99.90;;;;;;5078515;28;20388;-65
2022/01/05 09:30:18;;;;;;;18.50;5.40;;;0.90;99.90;;;;;;5077754;28;20032;-62
2022/01/05 09:32:44;;;;;;;19.33;5.43;;;0.90;99.90;;;;;;5080824;28;20067;-63
2022/01/05 09:35:13;;;;;;;20.50;5.95;;;0.90;99.90;;;;;;5098318;28;20068;-64
2022/01/05 09:37:50;;;;;;;21.20;6.85;;;1.00;99.90;;;;;;5084526;28;20036;-64
2022/01/05 09:43:03;;;;;;;25.95;6.38;;;1.00;99.90;;;;;;5067338;28;20037;-64
2022/01/05 09:45:33;;;;;;;17.77;6.28;;;0.90;99.90;;;;;;5079268;28;20040;-64
2022/01/05 09:48:18;;;;;;;20.85;5.65;;;0.90;99.90;;;;;;5085902;28;20040;-64
2022/01/05 09:50:52;;;;;;;15.35;6.20;;;0.90;99.90;;;;;;5095456;28;20039;-64
2022/01/05 09:53:18;;;;;;;24.15;5.72;;;0.90;99.90;;;;;;5083683;28;20107;-64
2022/01/05 09:55:45;;;;;;;23.20;6.97;;;1.00;99.90;;;;;;5093471;28;20080;-64
2022/01/05 09:58:11;;;;;;;18.33;7.03;;;0.90;99.90;;;;;;5089583;28;20047;-63
2022/01/05 10:00:37;;;;;;;21.58;7.05;;;0.90;99.90;;;;;;5100720;28;20398;-64
2022/01/05 10:03:04;;;;;;;16.65;6.53;;;0.80;99.90;;;;;;5098979;28;20039;-64
2022/01/05 10:05:30;;;;;;;19.10;6.90;;;0.90;99.90;;;;;;5082958;28;20052;-64
2022/01/05 10:07:55;;;;;;;22.23;6.35;;;0.90;99.90;;;;;;5084969;28;20059;-62
2022/01/05 10:10:21;;;;;;;17.60;5.95;;;0.90;99.90;;;;;;5088646;28;20064;-64
2022/01/05 10:12:47;;;;;;;18.10;6.18;;;0.90;99.90;;;;;;5080605;28;20130;-64
2022/01/05 10:15:13;;;;;;;14.68;5.88;;;1.00;99.90;;;;;;5086503;28;20036;-64
2022/01/05 10:17:40;;;;;;;18.52;5.57;;;0.90;99.90;;;;;;5083696;28;20048;-64
2022/01/05 10:20:09;;;;;;;20.58;7.45;;;0.90;99.90;;;;;;5082954;28;20519;-62
2022/01/05 10:22:41;;;;;;;19.67;7.30;;;0.90;99.90;;;;;;5080995;28;20540;-64
2022/01/05 10:25:20;;;;;;;12.75;5.93;;;0.90;99.90;;;;;;5087515;28;20036;-64
2022/01/05 10:28:03;;;;;;;18.88;7.53;;;0.80;99.90;;;;;;5076069;28;20060;-64
2022/01/05 10:30:45;;;;;;;23.02;7.35;;;0.80;99.90;;;;;;5084168;28;20043;-64
2022/01/05 10:33:11;;;;;;;14.45;5.85;;;0.70;99.90;;;;;;5075131;28;20037;-64
2022/01/05 10:35:38;;;;;;;15.77;6.43;;;0.70;99.90;;;;;;5075032;28;20516;-63
2022/01/05 10:38:07;;;;;;;12.07;5.85;;;0.70;99.90;;;;;;5072654;28;20122;-63
2022/01/05 10:40:35;;;;;;;18.13;7.53;;;0.70;99.90;;;;;;5078847;28;20491;-65
2022/01/05 10:43:08;;;;;;;16.42;5.85;;;0.70;99.90;;;;;;5081058;28;20070;-65
2022/01/05 10:45:46;;;;;;;9.98;5.05;;;0.80;99.90;;;;;;5077827;28;20040;-64
2022/01/05 10:48:21;;;;;;;15.75;6.65;;;0.80;99.90;;;;;;5086178;28;20056;-65
2022/01/05 10:51:00;;;;;;;14.45;5.63;;;0.80;99.90;;;;;;5080145;28;20403;-63
2022/01/05 10:53:26;;;;;;;13.20;5.28;;;0.90;99.90;;;;;;5080481;28;20051;-62
2022/01/05 10:55:52;;;;;;;12.52;5.32;;;1.00;99.90;;;;;;5088742;28;20043;-63
2022/01/05 10:58:19;;;;;;;11.05;5.25;;;1.00;99.90;;;;;;5082264;28;20169;-64
2022/01/05 11:00:50;;;;;;;13.18;6.47;;;1.00;99.90;;;;;;5080064;28;20039;-62
2022/01/05 11:03:20;;;;;;;12.38;5.50;;;1.10;99.90;;;;;;5082479;28;20040;-66
2022/01/05 11:06:10;;;;;;;10.52;4.63;;;1.10;99.90;;;;;;5084254;28;20044;-64
2022/01/05 11:08:57;;;;;;;9.95;5.22;;;1.00;99.90;;;;;;5082938;28;20040;-64
2022/01/05 11:11:35;;;;;;;13.77;6.07;;;0.80;99.90;;;;;;5074262;28;20127;-62
2022/01/05 11:14:01;;;;;;;14.18;6.03;;;0.70;99.90;;;;;;5076836;28;20041;-62
2022/01/05 11:16:29;;;;;;;13.77;6.30;;;0.70;99.90;;;;;;5076826;28;20097;-64
2022/01/05 11:19:16;;;;;;;12.50;5.70;;;0.60;99.90;;;;;;5074442;28;20044;-64
2022/01/05 11:22:01;;;;;;;12.50;5.47;;;0.60;99.90;;;;;;5074495;28;20041;-63
2022/01/05 11:24:29;;;;;;;9.75;5.00;;;0.50;99.90;;;;;;5082546;28;20121;-63
2022/01/05 11:26:55;;;;;;;8.75;5.13;;;0.60;99.90;;;;;;5079595;28;20714;-63
2022/01/05 11:29:21;;;;;;;10.48;4.97;;;0.60;99.90;;;;;;5080394;28;20028;-63
2022/01/05 11:31:47;;;;;;;14.48;4.47;;;0.60;99.90;;;;;;5084971;28;20032;-62
2022/01/05 11:34:13;;;;;;;8.85;3.83;;;0.60;99.90;;;;;;5080316;28;20036;-62
2022/01/05 11:36:41;;;;;;;6.28;3.50;;;0.60;99.90;;;;;;5075082;28;20039;-64
2022/01/05 11:39:07;;;;;;;7.30;3.08;;;0.60;99.90;;;;;;5075555;28;20055;-62
2022/01/05 11:41:35;;;;;;;7.82;3.55;;;0.60;99.90;;;;;;5082185;28;20490;-62
2022/01/05 11:44:04;;;;;;;3.88;2.72;;;0.60;99.90;;;;;;5079786;28;20103;-64
2022/01/05 11:46:30;;;;;;;4.57;2.65;;;0.70;99.90;;;;;;5083184;28;20131;-61
2022/01/05 11:49:00;;;;;;;6.57;3.53;;;0.70;99.90;;;;;;5079535;28;20123;-63
2022/01/05 11:51:48;;;;;;;4.85;2.35;;;0.70;99.90;;;;;;5083189;28;20507;-63
2022/01/05 11:54:20;;;;;;;6.22;3.10;;;0.70;99.90;;;;;;5078419;28;20072;-63
2022/01/05 11:56:48;;;;;;;4.40;2.60;;;0.70;99.90;;;;;;5077246;28;20087;-63
2022/01/05 11:59:33;;;;;;;6.88;3.10;;;0.70;99.90;;;;;;5083577;28;20127;-63
2022/01/05 12:02:17;;;;;;;5.07;2.85;;;0.70;99.90;;;;;;5077674;28;20044;-63
2022/01/05 12:04:56;;;;;;;4.25;2.70;;;0.70;99.90;;;;;;5086862;28;20068;-63
2022/01/05 12:07:40;;;;;;;6.65;2.85;;;0.70;99.90;;;;;;5093120;28;20523;-62
2022/01/05 12:10:21;;;;;;;5.22;2.88;;;0.80;99.90;;;;;;5088928;28;20035;-63
2022/01/05 12:12:55;;;;;;;5.63;2.95;;;0.80;99.90;;;;;;5076174;28;20032;-63
2022/01/05 12:15:41;;;;;;;6.18;3.13;;;0.80;99.90;;;;;;5071365;28;20040;-64
2022/01/05 12:18:07;;;;;;;4.22;2.75;;;0.80;99.90;;;;;;5077078;28;20115;-63
2022/01/05 12:20:37;;;;;;;5.35;2.95;;;0.80;99.90;;;;;;5078140;28;20131;-63
2022/01/05 12:23:25;;;;;;;7.18;3.03;;;0.80;99.90;;;;;;5082850;28;20043;-63
2022/01/05 12:26:03;;;;;;;4.55;2.72;;;0.90;99.90;;;;;;5094081;28;20036;-62
2022/01/05 12:28:30;;;;;;;7.28;3.35;;;0.90;99.90;;;;;;5084875;28;20122;-63
2022/01/05 12:30:56;;;;;;;5.35;2.25;;;0.80;99.90;;;;;;5094332;28;20522;-63
2022/01/05 12:33:22;;;;;;;5.75;3.05;;;0.90;99.90;;;;;;5084469;28;20044;-64
2022/01/05 12:36:01;;;;;;;6.65;2.83;;;0.90;99.90;;;;;;5090870;28;20032;-63
2022/01/05 12:38:48;;;;;;;6.53;2.50;;;0.90;99.90;;;;;;5081213;28;20518;-63
2022/01/05 12:41:23;;;;;;;4.43;2.65;;;0.90;99.90;;;;;;5081986;28;20727;-63
2022/01/05 12:43:50;;;;;;;4.68;2.10;;;0.90;99.90;;;;;;5071140;28;20036;-63
2022/01/05 12:46:32;;;;;;;3.30;1.88;;;1.00;99.90;;;;;;5089835;28;20072;-62
2022/01/05 12:49:00;;;;;;;4.25;1.92;;;1.00;99.90;;;;;;5085923;28;20548;-64
2022/01/05 12:51:33;;;;;;;2.55;2.08;;;1.00;99.90;;;;;;5094778;28;20088;-63
2022/01/05 12:54:09;;;;;;;2.50;1.90;;;1.00;99.90;;;;;;5068487;28;20040;-63
2022/01/05 12:56:44;;;;;;;4.05;1.95;;;1.00;99.90;;;;;;5075044;28;20048;-63